Time;durP1;ratioP1;P1;durP2;ratioP2;P2;SDS_P1;SDS_P2;PMS_P1;PMS_P2;Temp;Humidity;BMP_temperature;BMP_pressure;BME280_temperature;BME280_humidity;BME280_pressure;Samples;Min_cycle;Max_cycle;Signal;HPM_P1;HPM_P2
2021/12/02 00:02:06;;;;;;;0.50;0.30;;;7.20;99.90;6.40;98067.00;;;;5013496;27;118844;-65
2021/12/02 00:04:33;;;;;;;0.77;0.37;;;6.50;99.90;6.40;98082.00;;;;4996469;27;87947;-65
2021/12/02 00:07:00;;;;;;;0.23;0.20;;;6.50;99.90;6.50;98080.00;;;;4995845;28;87932;-65
2021/12/02 00:09:26;;;;;;;0.50;0.20;;;6.60;99.90;6.40;98113.00;;;;4995877;28;86949;-65
2021/12/02 00:11:51;;;;;;;0.73;0.30;;;6.60;99.90;6.40;98098.00;;;;4995345;27;105853;-65
2021/12/02 00:14:23;;;;;;;0.20;0.20;;;6.60;99.90;6.50;98099.00;;;;4994858;27;116878;-65
2021/12/02 00:17:03;;;;;;;0.43;0.43;;;6.60;99.90;6.50;98103.00;;;;4996991;27;88908;-65
2021/12/02 00:22:13;;;;;;;0.73;0.30;;;6.80;99.90;6.50;98097.00;;;;5012601;27;87715;-65
2021/12/02 00:24:40;;;;;;;4.33;0.57;;;6.60;99.90;6.60;98108.00;;;;5013226;27;118613;-65
2021/12/02 00:27:11;;;;;;;1.70;0.50;;;6.90;99.90;6.60;98110.00;;;;5000329;27;99245;-65
2021/12/02 00:29:39;;;;;;;0.50;0.40;;;6.70;99.90;6.60;98102.00;;;;4996063;27;87614;-66
2021/12/02 00:32:08;;;;;;;1.17;0.30;;;7.30;99.90;6.60;98106.00;;;;5015062;27;87879;-65
2021/12/02 00:34:42;;;;;;;1.60;0.93;;;6.70;99.90;6.60;98091.00;;;;5016410;27;87901;-65
2021/12/02 00:37:08;;;;;;;3.67;0.43;;;6.70;99.90;6.60;98108.00;;;;4996949;27;87747;-64
2021/12/02 00:39:34;;;;;;;1.47;0.43;;;7.30;99.90;6.60;98106.00;;;;4998291;27;87715;-65
2021/12/02 00:42:00;;;;;;;5.60;0.60;;;6.80;99.90;6.60;98085.00;;;;4997693;27;117883;-65
2021/12/02 00:44:29;;;;;;;0.87;0.50;;;6.90;99.90;6.70;98100.00;;;;4998161;28;118730;-65
2021/12/02 00:46:55;;;;;;;0.70;0.43;;;7.20;99.90;6.70;98116.00;;;;4999264;27;87808;-65
2021/12/02 00:49:21;;;;;;;0.53;0.40;;;6.70;99.90;6.60;98115.00;;;;5012956;27;110107;-66
2021/12/02 00:51:53;;;;;;;1.70;0.50;;;7.10;99.90;6.60;98121.00;;;;5018815;27;87988;-64
2021/12/02 00:54:21;;;;;;;0.47;0.30;;;6.70;99.90;6.60;98123.00;;;;5019374;27;88187;-65
2021/12/02 00:56:48;;;;;;;0.93;0.37;;;7.10;99.90;6.60;98112.00;;;;5017028;27;101800;-65
2021/12/02 00:59:14;;;;;;;3.50;0.40;;;6.70;99.90;6.50;98118.00;;;;5003137;27;87069;-65
2021/12/02 01:01:40;;;;;;;1.67;0.57;;;6.70;99.90;6.40;98113.00;;;;4995857;27;118082;-64
2021/12/02 01:04:12;;;;;;;0.40;0.23;;;6.60;99.90;6.30;98133.00;;;;4998947;28;88010;-64
2021/12/02 01:06:39;;;;;;;0.50;0.33;;;6.50;99.90;6.20;98135.00;;;;4998897;27;88748;-64
2021/12/02 01:09:07;;;;;;;0.20;0.20;;;6.60;99.90;6.20;98133.00;;;;4998755;27;87840;-65
2021/12/02 01:11:33;;;;;;;1.17;0.60;;;6.40;99.90;6.10;98135.00;;;;4998259;27;89302;-65
2021/12/02 01:13:59;;;;;;;0.97;0.50;;;6.30;99.90;6.10;98142.00;;;;4998621;27;88633;-66
2021/12/02 01:16:26;;;;;;;0.67;0.30;;;6.70;99.90;6.10;98135.00;;;;4997539;28;111561;-64
2021/12/02 01:18:52;;;;;;;1.10;0.47;;;6.80;99.90;6.10;98134.00;;;;5004556;27;87832;-65
2021/12/02 01:21:23;;;;;;;0.67;0.40;;;6.20;99.90;6.10;98144.00;;;;5007350;27;88312;-66
2021/12/02 01:23:52;;;;;;;0.63;0.37;;;6.30;99.90;6.10;98144.00;;;;4998763;28;86966;-65
2021/12/02 01:26:19;;;;;;;0.87;0.37;;;6.20;99.90;6.10;98143.00;;;;4998789;27;88788;-65
2021/12/02 01:28:46;;;;;;;1.23;0.47;;;6.20;99.90;6.00;98137.00;;;;4996320;28;87873;-66
2021/12/02 01:31:13;;;;;;;0.20;0.20;;;6.90;99.90;6.00;98134.00;;;;4998796;27;88878;-63
2021/12/02 01:33:40;;;;;;;1.13;0.53;;;6.10;99.90;5.90;98143.00;;;;4998509;27;88764;-63
2021/12/02 01:36:07;;;;;;;0.80;0.30;;;6.00;99.90;5.90;98154.00;;;;5008664;27;87760;-64
2021/12/02 01:38:33;;;;;;;0.27;0.27;;;6.00;99.90;5.90;98132.00;;;;5018057;27;89225;-64
2021/12/02 01:41:02;;;;;;;1.57;0.53;;;6.70;99.90;5.80;98152.00;;;;4998733;27;107145;-64
2021/12/02 01:43:51;;;;;;;1.00;0.30;;;6.00;99.90;5.80;98163.00;;;;4995551;28;88335;-65
2021/12/02 01:46:21;;;;;;;1.27;0.67;;;6.70;99.90;5.70;98157.00;;;;5002572;27;87966;-64
2021/12/02 01:49:27;;;;;;;0.97;0.57;;;6.40;99.90;5.70;98172.00;;;;5019182;27;87081;-64
2021/12/02 01:51:50;;;;;;;0.30;0.30;;;5.80;99.90;5.60;98164.00;;;;5010406;27;87846;-64
2021/12/02 01:54:26;;;;;;;2.30;0.50;;;6.40;99.90;5.50;98169.00;;;;5018711;27;88295;-65
2021/12/02 01:57:09;;;;;;;2.50;0.47;;;5.70;99.90;5.50;98168.00;;;;5017795;27;88731;-64
2021/12/02 01:59:38;;;;;;;1.07;0.50;;;5.70;99.90;5.50;98152.00;;;;5018161;27;87699;-65
2021/12/02 02:02:08;;;;;;;1.37;0.93;;;6.10;99.90;5.50;98167.00;;;;5017537;27;88853;-65
2021/12/02 02:04:33;;;;;;;1.20;0.67;;;5.60;99.90;5.50;98161.00;;;;5017955;27;88947;-65
2021/12/02 02:07:06;;;;;;;1.00;0.47;;;5.60;99.90;5.50;98174.00;;;;5015804;27;109806;-65
2021/12/02 02:09:34;;;;;;;1.37;0.63;;;5.60;99.90;5.50;98165.00;;;;5015507;27;93159;-65
2021/12/02 02:12:10;;;;;;;0.27;0.20;;;5.60;99.90;5.60;98169.00;;;;5016778;27;88920;-65
2021/12/02 02:14:36;;;;;;;0.30;0.30;;;5.70;99.90;5.60;98172.00;;;;5017112;27;89372;-65
2021/12/02 02:17:12;;;;;;;0.67;0.53;;;5.70;99.90;5.70;98160.00;;;;5017750;27;87778;-64
2021/12/02 02:19:38;;;;;;;0.60;0.33;;;5.80;99.90;5.80;98156.00;;;;5018324;27;87640;-66
2021/12/02 02:22:05;;;;;;;0.57;0.50;;;5.90;99.90;5.80;98171.00;;;;5005353;27;89807;-64
2021/12/02 02:24:31;;;;;;;0.60;0.40;;;5.90;99.90;5.90;98180.00;;;;4997264;27;89553;-64
2021/12/02 02:26:57;;;;;;;1.87;0.53;;;6.00;99.90;6.00;98169.00;;;;4997928;27;87709;-65
2021/12/02 02:29:22;;;;;;;0.63;0.40;;;6.00;99.90;6.00;98183.00;;;;5007525;27;109558;-65
2021/12/02 02:31:49;;;;;;;0.70;0.60;;;6.00;99.90;6.00;98166.00;;;;5015859;27;117732;-65
2021/12/02 02:34:15;;;;;;;0.87;0.20;;;6.80;99.90;6.10;98163.00;;;;5016986;27;88322;-65
2021/12/02 02:36:55;;;;;;;0.50;0.50;;;6.60;99.90;6.10;98176.00;;;;5003884;27;87647;-66
2021/12/02 02:39:22;;;;;;;1.83;0.93;;;6.80;99.90;6.10;98161.00;;;;4998117;27;87085;-65
2021/12/02 02:41:56;;;;;;;0.53;0.53;;;6.20;99.90;6.10;98166.00;;;;4999508;27;88118;-65
2021/12/02 02:44:24;;;;;;;1.80;0.63;;;6.20;99.90;6.10;98176.00;;;;5016633;27;87904;-64
2021/12/02 02:46:50;;;;;;;0.40;0.40;;;6.30;99.90;6.10;98172.00;;;;4997171;28;88772;-66
2021/12/02 02:49:16;;;;;;;0.37;0.30;;;6.30;99.90;6.10;98156.00;;;;4997113;28;87718;-65
2021/12/02 02:51:43;;;;;;;3.83;0.60;;;6.20;99.90;6.10;98184.00;;;;4997233;27;89830;-64
2021/12/02 02:54:12;;;;;;;2.50;0.43;;;6.50;99.90;6.10;98187.00;;;;4996827;28;87921;-64
2021/12/02 02:56:59;;;;;;;0.47;0.40;;;6.70;99.90;6.00;98197.00;;;;4997782;27;87776;-66
2021/12/02 02:59:38;;;;;;;1.47;0.63;;;6.20;99.90;6.00;98212.00;;;;4997066;28;87713;-65
2021/12/02 03:07:42;;;;;;;0.23;0.23;;;6.30;99.90;6.00;98207.00;;;;5007067;27;104494;-66
2021/12/02 03:09:54;;;;;;;3.43;0.93;;;6.20;99.90;6.00;98206.00;;;;5008676;27;87816;-65
2021/12/02 03:12:31;;;;;;;1.67;0.80;;;6.10;99.90;6.00;98221.00;;;;4996332;27;89242;-65
2021/12/02 03:17:28;;;;;;;1.97;0.90;;;6.10;99.90;6.00;98222.00;;;;5008871;27;87875;-64
2021/12/02 03:19:53;;;;;;;2.60;0.50;;;6.10;99.90;6.00;98221.00;;;;5015436;27;92710;-64
2021/12/02 03:22:19;;;;;;;1.40;0.33;;;6.50;99.90;6.00;98222.00;;;;5016008;27;97352;-65
2021/12/02 03:24:45;;;;;;;0.77;0.47;;;6.10;99.90;6.00;98222.00;;;;5016351;27;88556;-65
2021/12/02 03:27:12;;;;;;;0.80;0.67;;;6.20;99.90;5.90;98229.00;;;;5014631;27;87986;-64
2021/12/02 03:29:39;;;;;;;1.33;0.30;;;6.00;99.90;6.00;98228.00;;;;5016650;27;86911;-65
2021/12/02 03:32:05;;;;;;;0.40;0.30;;;6.60;99.90;5.90;98237.00;;;;5015739;27;88497;-65
2021/12/02 03:34:32;;;;;;;1.10;0.60;;;6.00;99.90;5.90;98242.00;;;;5016247;27;87685;-65
2021/12/02 03:36:58;;;;;;;0.40;0.40;;;6.10;99.90;5.90;98244.00;;;;5007278;27;100670;-64
2021/12/02 03:39:25;;;;;;;0.87;0.60;;;6.00;99.90;5.90;98260.00;;;;5016346;27;88005;-65
2021/12/02 03:41:52;;;;;;;0.70;0.50;;;6.00;99.90;5.90;98246.00;;;;5015548;27;89316;-65
2021/12/02 03:44:18;;;;;;;0.37;0.37;;;6.00;99.90;5.90;98249.00;;;;5014060;27;87695;-65
2021/12/02 03:50:56;;;;;;;1.63;0.80;;;6.00;99.90;5.90;98278.00;;;;4993016;27;87778;-65
2021/12/02 03:53:22;;;;;;;0.60;0.40;;;6.00;99.90;5.80;98284.00;;;;4994941;27;102363;-63
2021/12/02 03:55:48;;;;;;;1.10;0.80;;;6.00;99.90;5.80;98282.00;;;;4995740;27;117688;-63
2021/12/02 03:58:14;;;;;;;1.33;0.57;;;6.00;99.90;5.80;98293.00;;;;4995289;28;102343;-65
2021/12/02 04:00:40;;;;;;;0.97;0.53;;;5.90;99.90;5.80;98295.00;;;;4995677;27;105123;-64
2021/12/02 04:03:06;;;;;;;2.13;0.80;;;5.90;99.90;5.80;98293.00;;;;4994880;27;118451;-64
2021/12/02 04:05:32;;;;;;;1.57;0.80;;;5.80;99.90;5.70;98296.00;;;;5000821;27;101457;-64
2021/12/02 04:07:57;;;;;;;1.67;0.67;;;5.90;99.90;5.70;98290.00;;;;5014902;27;109747;-64
2021/12/02 04:10:24;;;;;;;0.50;0.50;;;5.80;99.90;5.70;98309.00;;;;5015236;27;108576;-66
2021/12/02 04:15:29;;;;;;;0.63;0.50;;;5.80;99.90;5.70;98305.00;;;;5012499;27;88983;-65
2021/12/02 04:17:55;;;;;;;1.87;0.97;;;6.50;99.90;5.60;98324.00;;;;5016291;27;87807;-64
2021/12/02 04:20:23;;;;;;;1.67;1.03;;;5.80;99.90;5.60;98326.00;;;;5015083;27;87120;-65
2021/12/02 04:22:51;;;;;;;0.93;0.50;;;5.70;99.90;5.60;98335.00;;;;5014624;27;103240;-64
2021/12/02 04:25:18;;;;;;;1.67;0.50;;;6.30;99.90;5.60;98342.00;;;;5015255;27;89062;-65
2021/12/02 04:27:46;;;;;;;0.50;0.50;;;5.70;99.90;5.50;98335.00;;;;5015854;27;88914;-65
2021/12/02 04:30:17;;;;;;;1.97;0.40;;;6.20;99.90;5.30;98315.00;;;;5015849;27;93450;-66
2021/12/02 04:32:43;;;;;;;0.73;0.30;;;6.10;99.90;5.30;98337.00;;;;5013793;27;104779;-65
2021/12/02 04:35:11;;;;;;;0.57;0.30;;;5.40;99.90;5.30;98346.00;;;;4994664;27;117611;-65
2021/12/02 04:37:38;;;;;;;4.33;1.00;;;5.40;99.90;5.20;98340.00;;;;4996299;28;87728;-65
2021/12/02 04:40:06;;;;;;;0.63;0.60;;;5.90;99.90;5.20;98351.00;;;;4996703;27;96081;-64
2021/12/02 04:42:32;;;;;;;1.80;0.80;;;5.30;99.90;5.20;98349.00;;;;5009388;27;88596;-65
2021/12/02 04:44:57;;;;;;;1.97;0.83;;;5.40;99.90;5.10;98353.00;;;;5015445;27;88280;-66
2021/12/02 04:47:23;;;;;;;1.87;0.53;;;5.30;99.90;5.00;98359.00;;;;5015903;27;87452;-65
2021/12/02 04:49:49;;;;;;;1.50;0.50;;;5.20;99.90;4.80;98364.00;;;;5015315;27;101691;-65
2021/12/02 04:52:15;;;;;;;0.40;0.40;;;5.10;99.90;4.60;98364.00;;;;5013976;27;118505;-64
2021/12/02 04:54:40;;;;;;;0.40;0.40;;;4.90;99.90;4.40;98352.00;;;;5011866;27;90038;-65
2021/12/02 04:57:06;;;;;;;1.30;0.73;;;4.70;99.90;4.20;98364.00;;;;4995274;27;92302;-65
2021/12/02 04:59:32;;;;;;;0.93;0.50;;;4.50;99.90;4.10;98371.00;;;;5011612;27;109242;-64
2021/12/02 05:01:58;;;;;;;1.43;0.73;;;4.30;99.90;4.00;98375.00;;;;5002707;27;88030;-64
2021/12/02 05:04:23;;;;;;;1.77;0.50;;;4.20;99.90;3.90;98362.00;;;;4993692;28;116847;-65
2021/12/02 05:06:49;;;;;;;1.70;0.53;;;4.20;99.90;3.90;98375.00;;;;5002910;27;87736;-65
2021/12/02 05:09:15;;;;;;;0.93;0.50;;;4.10;99.90;3.90;98376.00;;;;5012558;27;106942;-65
2021/12/02 05:11:41;;;;;;;0.50;0.50;;;4.10;99.90;3.90;98379.00;;;;4999840;27;90707;-65
2021/12/02 05:14:08;;;;;;;0.30;0.30;;;4.00;99.90;3.80;98384.00;;;;4994837;28;88450;-64
2021/12/02 05:16:36;;;;;;;2.13;1.03;;;4.50;99.90;3.80;98375.00;;;;4995580;27;88498;-64
2021/12/02 05:19:02;;;;;;;2.40;0.77;;;4.00;99.90;3.70;98375.00;;;;4994014;28;101007;-65
2021/12/02 05:21:27;;;;;;;1.13;0.60;;;3.90;99.90;3.70;98382.00;;;;5008612;27;88282;-65
2021/12/02 05:23:54;;;;;;;1.10;0.80;;;3.90;99.90;3.60;98384.00;;;;5013067;27;117343;-65
2021/12/02 05:26:21;;;;;;;1.03;0.70;;;3.90;99.90;3.70;98389.00;;;;5017640;27;87905;-65
2021/12/02 05:28:47;;;;;;;1.10;1.00;;;3.80;99.90;3.70;98386.00;;;;5013670;27;87983;-65
2021/12/02 05:31:13;;;;;;;2.43;0.63;;;4.30;99.90;3.70;98387.00;;;;4997402;28;117897;-65
2021/12/02 05:33:38;;;;;;;1.00;0.67;;;3.90;99.90;3.80;98407.00;;;;4998546;28;88053;-65
2021/12/02 05:36:04;;;;;;;1.20;0.80;;;3.90;99.90;3.80;98401.00;;;;4997282;27;110936;-64
2021/12/02 05:38:30;;;;;;;2.93;1.00;;;4.00;99.90;3.90;98410.00;;;;4997952;27;108738;-64
2021/12/02 05:40:56;;;;;;;1.03;0.63;;;4.00;99.90;3.90;98401.00;;;;4998080;27;90259;-64
2021/12/02 05:43:22;;;;;;;4.50;1.03;;;4.10;99.90;3.90;98411.00;;;;4996606;28;117970;-65
2021/12/02 05:45:47;;;;;;;4.63;1.07;;;4.10;99.90;3.90;98405.00;;;;4997101;27;88015;-65
2021/12/02 05:48:13;;;;;;;0.73;0.40;;;4.10;99.90;4.00;98412.00;;;;4997821;27;95576;-65
2021/12/02 05:50:39;;;;;;;2.27;0.60;;;4.10;99.90;4.00;98414.00;;;;5003560;27;117788;-65
2021/12/02 05:53:04;;;;;;;0.93;0.50;;;4.80;99.90;4.00;98407.00;;;;5016357;27;88138;-64
2021/12/02 05:55:30;;;;;;;0.77;0.73;;;4.10;99.90;4.00;98395.00;;;;5017505;27;110575;-65
2021/12/02 05:57:56;;;;;;;0.80;0.70;;;4.10;99.90;4.00;98401.00;;;;5001518;27;99228;-65
2021/12/02 06:00:22;;;;;;;0.50;0.50;;;4.10;99.90;4.00;98407.00;;;;4997725;27;88721;-64
2021/12/02 06:02:47;;;;;;;1.70;0.70;;;4.20;99.90;4.00;98400.00;;;;4996818;28;117492;-65
2021/12/02 06:05:31;;;;;;;6.33;0.80;;;4.10;99.90;4.00;98403.00;;;;4997618;27;88818;-64
2021/12/02 06:07:58;;;;;;;2.93;0.60;;;4.20;99.90;4.00;98411.00;;;;4998459;28;87922;-65
2021/12/02 06:10:25;;;;;;;0.83;0.67;;;4.20;99.90;4.00;98398.00;;;;4997641;27;88353;-65
2021/12/02 06:12:51;;;;;;;2.20;0.63;;;4.10;99.90;4.00;98410.00;;;;4997328;27;90495;-64
2021/12/02 06:15:17;;;;;;;1.70;0.60;;;4.20;99.90;4.00;98405.00;;;;4997924;27;87895;-65
2021/12/02 06:17:43;;;;;;;1.23;0.63;;;4.20;99.90;4.00;98408.00;;;;4997920;28;87543;-64
2021/12/02 06:20:11;;;;;;;0.73;0.57;;;4.10;99.90;4.00;98404.00;;;;4998026;27;88541;-64
2021/12/02 06:22:37;;;;;;;1.30;0.80;;;4.20;99.90;4.00;98421.00;;;;4999581;27;87063;-64
2021/12/02 06:25:43;;;;;;;1.23;0.87;;;4.20;99.90;4.10;98421.00;;;;5007076;27;111197;-64
2021/12/02 06:27:53;;;;;;;2.07;0.83;;;4.20;99.90;4.10;98420.00;;;;5017567;27;87875;-64
2021/12/02 06:30:25;;;;;;;1.90;0.93;;;4.20;99.90;4.10;98430.00;;;;5013079;27;89727;-64
2021/12/02 06:32:51;;;;;;;1.43;0.70;;;4.80;99.90;4.10;98441.00;;;;5016809;27;89594;-63
2021/12/02 06:35:17;;;;;;;3.80;0.73;;;4.30;99.90;4.20;98435.00;;;;5017812;27;87862;-63
2021/12/02 06:37:45;;;;;;;0.63;0.63;;;4.30;99.90;4.20;98454.00;;;;5015159;27;102729;-64
2021/12/02 06:40:12;;;;;;;1.27;0.60;;;4.40;99.90;4.20;98477.00;;;;5017653;27;88209;-64
2021/12/02 06:42:39;;;;;;;1.10;0.90;;;4.40;99.90;4.20;98481.00;;;;5006495;27;108141;-64
2021/12/02 06:45:06;;;;;;;0.70;0.70;;;4.30;99.90;4.20;98480.00;;;;5015589;27;87964;-64
2021/12/02 06:47:38;;;;;;;5.90;1.13;;;4.40;99.90;4.30;98478.00;;;;5017092;27;96372;-65
2021/12/02 06:50:07;;;;;;;1.73;0.50;;;4.30;99.90;4.30;98485.00;;;;5003908;27;88820;-65
2021/12/02 06:52:33;;;;;;;1.77;0.40;;;4.40;99.90;4.30;98487.00;;;;5001297;27;88130;-64
2021/12/02 06:54:58;;;;;;;0.50;0.40;;;4.40;99.90;4.30;98496.00;;;;5001180;27;88728;-63
2021/12/02 06:57:24;;;;;;;3.23;0.60;;;4.40;99.90;4.30;98500.00;;;;4994195;27;87745;-64
2021/12/02 06:59:50;;;;;;;2.30;0.60;;;4.50;99.90;4.30;98489.00;;;;4994572;27;87941;-64
2021/12/02 07:02:18;;;;;;;11.43;1.20;;;4.40;99.90;4.30;98501.00;;;;4993337;27;117463;-64
2021/12/02 07:04:44;;;;;;;4.23;0.60;;;4.40;99.90;4.30;98507.00;;;;4993453;27;87823;-64
2021/12/02 07:07:10;;;;;;;3.77;0.97;;;4.40;99.90;4.20;98494.00;;;;5000679;27;101626;-65
2021/12/02 07:09:36;;;;;;;2.50;0.87;;;4.40;99.90;4.20;98509.00;;;;4990615;27;117898;-64
2021/12/02 07:12:01;;;;;;;1.80;0.60;;;4.40;99.90;4.20;98507.00;;;;4994650;27;108132;-65
2021/12/02 07:14:28;;;;;;;0.60;0.43;;;4.50;99.90;4.30;98526.00;;;;4992849;27;93492;-63
2021/12/02 07:16:54;;;;;;;0.30;0.30;;;4.40;99.90;4.30;98530.00;;;;4993679;27;87696;-64
2021/12/02 07:19:20;;;;;;;2.17;0.80;;;4.40;99.90;4.30;98537.00;;;;4993218;27;89685;-64
2021/12/02 07:21:46;;;;;;;0.43;0.43;;;4.40;99.90;4.30;98529.00;;;;5002514;27;90060;-64
2021/12/02 07:24:15;;;;;;;1.00;0.60;;;4.40;99.90;4.30;98541.00;;;;4994276;27;88147;-64
2021/12/02 07:26:43;;;;;;;2.23;0.97;;;5.20;99.90;4.30;98544.00;;;;4996284;27;87685;-66
2021/12/02 07:29:13;;;;;;;1.33;0.80;;;4.40;99.90;4.30;98540.00;;;;4993309;27;88161;-64
2021/12/02 07:31:40;;;;;;;1.43;0.70;;;4.50;99.90;4.30;98544.00;;;;4993945;27;87732;-66
2021/12/02 07:34:07;;;;;;;3.10;0.80;;;4.40;99.90;4.30;98538.00;;;;4995895;27;90451;-66
2021/12/02 07:36:34;;;;;;;0.20;0.20;;;4.50;99.90;4.30;98526.00;;;;4997476;27;93187;-65
2021/12/02 07:39:02;;;;;;;3.67;0.87;;;4.50;99.90;4.30;98554.00;;;;4992798;27;90243;-65
2021/12/02 07:41:28;;;;;;;3.70;1.17;;;4.90;99.90;4.30;98545.00;;;;4995563;27;107939;-65
2021/12/02 07:43:54;;;;;;;2.63;0.83;;;4.50;99.90;4.30;98536.00;;;;4995498;27;109567;-64
2021/12/02 07:46:19;;;;;;;1.23;0.53;;;4.40;99.90;4.30;98538.00;;;;4994310;27;110416;-64
2021/12/02 07:48:45;;;;;;;3.00;0.50;;;4.50;99.90;4.30;98549.00;;;;4999208;27;117839;-65
2021/12/02 07:51:16;;;;;;;3.20;0.60;;;3.70;99.90;4.30;98553.00;;;;5007266;27;88466;-65
2021/12/02 07:53:44;;;;;;;6.13;0.80;;;4.50;99.90;4.30;98562.00;;;;4998448;27;87920;-65
2021/12/02 07:56:13;;;;;;;1.20;0.73;;;4.50;99.90;4.40;98567.00;;;;4993904;27;87728;-65
2021/12/02 07:58:44;;;;;;;1.63;0.80;;;5.00;99.90;4.40;98558.00;;;;4992751;27;89024;-64
2021/12/02 08:01:10;;;;;;;1.20;0.63;;;4.60;99.90;4.40;98571.00;;;;4997754;27;88540;-65
2021/12/02 08:03:42;;;;;;;2.03;0.73;;;4.50;99.90;4.50;98573.00;;;;4992327;27;92900;-65
2021/12/02 08:06:08;;;;;;;1.40;1.10;;;5.00;99.90;4.50;98579.00;;;;4993122;27;88257;-64
2021/12/02 08:08:33;;;;;;;3.40;1.00;;;4.60;99.90;4.50;98582.00;;;;4990481;27;120021;-64
2021/12/02 08:10:59;;;;;;;1.80;0.50;;;4.60;99.90;4.50;98593.00;;;;4991843;27;117086;-64
2021/12/02 08:13:30;;;;;;;2.17;0.70;;;4.10;99.90;4.60;98582.00;;;;4993936;27;110152;-65
2021/12/02 08:15:55;;;;;;;1.13;0.70;;;5.20;99.90;4.60;98605.00;;;;4992924;27;87980;-64
2021/12/02 08:18:21;;;;;;;0.60;0.50;;;4.70;99.90;4.60;98597.00;;;;4991969;27;116827;-65
2021/12/02 08:20:47;;;;;;;2.47;0.70;;;4.70;99.90;4.70;98616.00;;;;4992303;27;107918;-64
2021/12/02 08:23:13;;;;;;;1.50;0.50;;;4.80;99.90;4.70;98615.00;;;;4991980;27;109297;-64
2021/12/02 08:25:38;;;;;;;2.00;0.83;;;5.30;99.90;4.70;98618.00;;;;4993535;27;87000;-64
2021/12/02 08:28:04;;;;;;;2.03;0.70;;;4.70;99.90;4.70;98626.00;;;;4993240;27;99426;-64
2021/12/02 08:30:34;;;;;;;1.37;0.60;;;4.90;99.90;4.80;98619.00;;;;4992561;27;88541;-64
2021/12/02 08:33:01;;;;;;;1.00;0.43;;;4.90;99.90;4.80;98622.00;;;;4991861;27;88664;-64
2021/12/02 08:35:27;;;;;;;3.93;1.07;;;5.40;99.90;4.80;98617.00;;;;4992988;27;87679;-64
2021/12/02 08:37:57;;;;;;;3.60;0.80;;;5.00;99.90;4.90;98621.00;;;;4993567;27;88647;-64
2021/12/02 08:40:30;;;;;;;5.33;0.70;;;5.00;99.90;4.90;98628.00;;;;4992973;27;88034;-65
2021/12/02 08:42:56;;;;;;;3.53;0.57;;;5.00;99.70;5.20;98641.00;;;;4992204;27;87746;-63
2021/12/02 08:45:21;;;;;;;2.10;0.60;;;5.20;99.80;5.50;98631.00;;;;4992439;27;90608;-65
2021/12/02 08:47:47;;;;;;;0.30;0.30;;;5.50;98.40;5.70;98650.00;;;;4991709;27;107594;-66
2021/12/02 08:50:17;;;;;;;0.67;0.67;;;5.80;97.60;6.00;98660.00;;;;4992684;27;87663;-64
2021/12/02 08:52:45;;;;;;;4.23;0.77;;;6.50;97.60;6.30;98651.00;;;;4992626;27;101658;-65
2021/12/02 08:55:11;;;;;;;0.30;0.30;;;6.60;96.70;6.50;98670.00;;;;4998350;27;91178;-64
2021/12/02 08:57:37;;;;;;;1.90;0.53;;;6.50;95.00;6.50;98663.00;;;;4999673;27;90172;-65
2021/12/02 09:00:07;;;;;;;2.40;0.47;;;6.60;94.50;6.40;98663.00;;;;4994271;27;88533;-65
2021/12/02 09:02:33;;;;;;;2.93;0.60;;;6.60;92.50;6.30;98670.00;;;;5001101;27;87842;-64
2021/12/02 09:04:59;;;;;;;0.67;0.40;;;6.50;93.00;6.10;98667.00;;;;4994838;27;108993;-65
2021/12/02 09:07:25;;;;;;;2.27;0.80;;;6.80;92.90;6.00;98677.00;;;;4995294;27;88951;-64
2021/12/02 09:09:51;;;;;;;0.60;0.60;;;6.20;93.00;6.10;98676.00;;;;4993277;27;87762;-65
2021/12/02 09:12:17;;;;;;;1.87;1.03;;;6.20;92.00;6.30;98670.00;;;;4995016;27;109094;-65
2021/12/02 09:14:42;;;;;;;2.30;0.87;;;6.40;92.70;6.50;98666.00;;;;4995021;27;97549;-65
2021/12/02 09:17:08;;;;;;;4.67;0.67;;;6.80;91.50;6.70;98673.00;;;;4995225;27;112103;-64
2021/12/02 09:19:34;;;;;;;5.23;1.20;;;6.70;90.00;6.90;98684.00;;;;4995613;27;87834;-65
2021/12/02 09:22:00;;;;;;;0.73;0.73;;;7.30;89.60;7.00;98680.00;;;;4995267;27;88775;-65
2021/12/02 09:24:26;;;;;;;1.77;0.80;;;7.50;87.30;7.20;98683.00;;;;5000686;27;90074;-65
2021/12/02 09:26:53;;;;;;;4.10;1.00;;;7.20;83.90;7.30;98688.00;;;;4994532;27;118841;-64
2021/12/02 09:29:21;;;;;;;2.83;0.60;;;7.30;84.10;7.40;98680.00;;;;4995629;27;87733;-65
2021/12/02 09:31:47;;;;;;;1.17;0.73;;;7.70;84.00;7.60;98682.00;;;;5000355;27;87935;-63
2021/12/02 09:34:14;;;;;;;3.03;0.47;;;7.60;80.50;7.70;98692.00;;;;4998852;27;103189;-64
2021/12/02 09:36:41;;;;;;;0.60;0.60;;;7.70;81.40;7.80;98696.00;;;;4995218;27;107680;-65
2021/12/02 09:39:10;;;;;;;3.23;1.13;;;7.80;80.70;8.00;98678.00;;;;4995678;27;88548;-65
2021/12/02 09:41:37;;;;;;;2.47;0.80;;;7.90;79.30;8.10;98690.00;;;;4996065;27;88005;-64
2021/12/02 09:44:04;;;;;;;2.13;0.83;;;8.10;77.90;8.20;98693.00;;;;4994531;27;87514;-65
2021/12/02 09:46:31;;;;;;;0.40;0.40;;;8.40;78.20;8.30;98688.00;;;;4994749;27;89522;-65
2021/12/02 09:49:00;;;;;;;1.40;0.53;;;8.30;74.10;8.30;98677.00;;;;4993894;27;99858;-65
2021/12/02 09:51:31;;;;;;;0.80;0.57;;;8.30;70.40;8.20;98683.00;;;;4996146;27;87758;-65
2021/12/02 09:54:19;;;;;;;3.10;0.70;;;8.40;69.30;8.20;98690.00;;;;4995247;27;87815;-65
2021/12/02 09:56:45;;;;;;;2.63;0.73;;;8.30;69.00;8.10;98709.00;;;;4996906;27;88176;-65
2021/12/02 09:59:24;;;;;;;0.90;0.40;;;8.30;69.30;8.30;98714.00;;;;4994599;27;88048;-65
2021/12/02 10:01:55;;;;;;;1.40;0.60;;;8.30;69.50;8.30;98702.00;;;;5001586;27;87769;-65
2021/12/02 10:04:23;;;;;;;0.53;0.40;;;8.40;69.10;8.30;98705.00;;;;4995036;27;87005;-65
2021/12/02 10:07:06;;;;;;;3.67;1.07;;;8.40;67.90;8.40;98710.00;;;;5000288;27;89635;-65
2021/12/02 10:09:39;;;;;;;0.60;0.50;;;8.50;68.80;8.40;98711.00;;;;5000553;27;88251;-64
2021/12/02 10:12:21;;;;;;;0.50;0.50;;;8.50;67.30;8.50;98706.00;;;;5001252;27;88659;-65
2021/12/02 10:14:56;;;;;;;1.30;0.40;;;8.50;68.20;8.60;98700.00;;;;4995295;27;87809;-65
2021/12/02 10:17:33;;;;;;;1.93;0.70;;;8.60;67.90;8.60;98708.00;;;;4996655;27;88168;-65
2021/12/02 10:20:19;;;;;;;0.37;0.33;;;8.70;66.60;8.60;98710.00;;;;4995100;27;88230;-65
2021/12/02 10:23:04;;;;;;;1.70;0.50;;;8.70;66.00;8.60;98704.00;;;;4994799;27;87682;-64
2021/12/02 10:25:33;;;;;;;1.37;0.63;;;8.70;65.60;8.60;98707.00;;;;4994767;27;87993;-64
2021/12/02 10:28:06;;;;;;;0.93;0.60;;;8.70;63.90;8.50;98727.00;;;;4995434;27;88223;-65
2021/12/02 10:30:34;;;;;;;0.83;0.57;;;8.70;65.00;8.60;98714.00;;;;4995059;27;86856;-65
2021/12/02 10:32:59;;;;;;;2.17;0.50;;;8.70;65.40;8.70;98711.00;;;;4997985;27;96878;-65
2021/12/02 10:35:45;;;;;;;2.50;0.70;;;8.70;65.90;8.80;98720.00;;;;4994854;27;88080;-65
2021/12/02 10:38:34;;;;;;;1.37;0.77;;;8.80;63.90;8.80;98718.00;;;;4991452;27;89535;-66
2021/12/02 10:41:09;;;;;;;0.57;0.30;;;8.90;63.10;8.80;98712.00;;;;4995566;27;89124;-65
2021/12/02 10:43:37;;;;;;;5.10;0.60;;;8.80;62.90;8.80;98713.00;;;;4999569;27;87840;-65
2021/12/02 10:46:18;;;;;;;1.90;0.87;;;8.80;63.00;8.90;98718.00;;;;4992296;27;91854;-65
2021/12/02 10:48:48;;;;;;;5.63;0.57;;;8.90;62.80;8.80;98717.00;;;;5004636;27;88359;-65
2021/12/02 10:51:53;;;;;;;3.00;0.87;;;8.90;62.40;8.90;98730.00;;;;4996689;27;87808;-65
2021/12/02 10:54:30;;;;;;;2.20;0.77;;;9.00;63.90;9.00;98730.00;;;;4993888;27;99590;-65
2021/12/02 10:57:00;;;;;;;1.47;0.43;;;9.00;64.50;9.20;98721.00;;;;4995791;27;86987;-65
2021/12/02 10:59:42;;;;;;;2.23;0.60;;;9.20;64.70;9.20;98716.00;;;;4997894;27;88651;-65
2021/12/02 11:02:43;;;;;;;0.93;0.70;;;9.20;63.70;9.40;98718.00;;;;4993899;27;87983;-64
2021/12/02 11:05:18;;;;;;;0.50;0.43;;;9.40;63.70;9.50;98705.00;;;;4987919;27;88786;-65
2021/12/02 11:08:12;;;;;;;0.40;0.40;;;9.50;62.20;9.40;98716.00;;;;4994197;27;87783;-64
2021/12/02 11:10:48;;;;;;;1.13;0.50;;;9.50;61.70;9.50;98725.00;;;;4993043;27;87770;-65
2021/12/02 11:13:23;;;;;;;0.93;0.60;;;9.60;62.70;9.60;98710.00;;;;4994345;27;109242;-64
2021/12/02 11:15:50;;;;;;;3.43;0.73;;;9.60;61.20;9.60;98716.00;;;;5000881;27;88904;-65
2021/12/02 11:18:16;;;;;;;0.87;0.43;;;9.60;61.00;9.60;98727.00;;;;4993102;27;96173;-64
2021/12/02 11:20:47;;;;;;;0.87;0.53;;;9.60;59.90;9.60;98719.00;;;;4993941;27;88077;-65
2021/12/02 11:23:30;;;;;;;1.20;0.60;;;9.70;59.40;9.60;98726.00;;;;5000008;27;87757;-64
2021/12/02 11:26:05;;;;;;;4.43;0.63;;;9.60;58.60;9.50;98730.00;;;;4999531;27;87779;-64
2021/12/02 11:28:37;;;;;;;4.93;0.73;;;9.60;59.10;9.60;98720.00;;;;4994400;27;87942;-65
2021/12/02 11:31:13;;;;;;;1.63;0.90;;;9.60;59.60;9.60;98730.00;;;;4993042;27;89382;-64
2021/12/02 11:33:40;;;;;;;1.77;0.83;;;9.60;59.20;9.70;98738.00;;;;4992579;27;90046;-64